Time;durP1;ratioP1;P1;durP2;ratioP2;P2;SDS_P1;SDS_P2;PMS_P1;PMS_P2;Temp;Humidity;BMP_temperature;BMP_pressure;BME280_temperature;BME280_humidity;BME280_pressure;Samples;Min_cycle;Max_cycle;Signal;HPM_P1;HPM_P2
2021/07/12 00:00:55;;;;;;;11.30;7.07;;;28.30;61.80;;;;;;5050146;28;20024;-57
2021/07/12 00:29:13;;;;;;;10.88;5.90;;;28.10;62.20;;;;;;5047292;28;20103;-58
2021/07/12 00:31:39;;;;;;;10.00;7.75;;;28.10;62.20;;;;;;5032099;28;20486;-58
2021/07/12 00:34:05;;;;;;;9.45;6.32;;;28.10;62.50;;;;;;5031711;28;20508;-58
2021/07/12 00:36:31;;;;;;;11.82;8.25;;;28.00;62.50;;;;;;5031162;28;20033;-58
2021/07/12 00:38:57;;;;;;;17.15;8.30;;;28.00;62.70;;;;;;5014021;28;20068;-58
2021/07/12 00:41:23;;;;;;;13.82;9.98;;;28.00;62.70;;;;;;5013690;28;20530;-58
2021/07/12 00:43:50;;;;;;;9.85;6.22;;;28.00;62.90;;;;;;5030101;28;20397;-58
2021/07/12 00:46:16;;;;;;;12.15;6.97;;;27.90;62.90;;;;;;5031201;28;20045;-58
2021/07/12 00:48:42;;;;;;;8.15;5.93;;;27.90;62.80;;;;;;5013944;28;20472;-57
2021/07/12 00:51:09;;;;;;;9.32;6.78;;;27.90;62.80;;;;;;5031525;28;20036;-57
2021/07/12 00:53:36;;;;;;;11.07;6.97;;;28.00;62.80;;;;;;4994412;28;20035;-57
2021/07/12 00:56:05;;;;;;;14.25;8.45;;;28.00;62.90;;;;;;5013292;28;20021;-57
2021/07/12 00:58:31;;;;;;;8.55;6.20;;;28.00;63.10;;;;;;5031781;28;20039;-58
2021/07/12 01:01:00;;;;;;;11.27;8.23;;;27.90;63.00;;;;;;5030782;28;20025;-58
2021/07/12 01:03:28;;;;;;;13.65;7.68;;;27.90;63.10;;;;;;5012081;28;20132;-58
2021/07/12 01:05:56;;;;;;;6.30;5.70;;;27.90;63.30;;;;;;5031244;28;20425;-58
2021/07/12 01:08:25;;;;;;;8.20;6.00;;;27.80;63.10;;;;;;5013048;28;20431;-59
2021/07/12 01:11:41;;;;;;;7.53;6.03;;;27.80;63.10;;;;;;5031182;28;20021;-59
2021/07/12 01:14:37;;;;;;;7.63;6.50;;;27.80;63.10;;;;;;4951271;28;20139;-59
2021/07/12 01:17:58;;;;;;;12.57;7.25;;;27.90;63.10;;;;;;4955835;28;20042;-59
2021/07/12 01:20:45;;;;;;;15.95;7.00;;;27.90;63.10;;;;;;4942076;28;20042;-58
2021/07/12 01:23:20;;;;;;;7.30;6.40;;;28.00;63.10;;;;;;4969471;28;20066;-58
2021/07/12 01:26:04;;;;;;;11.35;7.75;;;28.00;63.30;;;;;;4969379;28;20478;-58
2021/07/12 01:28:49;;;;;;;11.88;7.18;;;27.90;63.40;;;;;;4953485;28;20390;-58
2021/07/12 01:31:33;;;;;;;12.82;6.70;;;27.80;63.50;;;;;;4985165;28;20056;-58
2021/07/12 01:34:38;;;;;;;11.73;7.90;;;27.80;63.30;;;;;;4972767;28;20129;-58
2021/07/12 01:37:26;;;;;;;9.65;7.43;;;27.80;63.70;;;;;;4957256;28;20034;-58
2021/07/12 01:40:03;;;;;;;8.20;5.93;;;27.80;63.80;;;;;;4989076;28;20134;-58
2021/07/12 01:42:35;;;;;;;9.05;7.43;;;27.80;63.90;;;;;;4972696;28;20594;-58
2021/07/12 01:45:09;;;;;;;10.13;7.80;;;27.80;63.70;;;;;;4988361;28;20157;-58
2021/07/12 01:48:08;;;;;;;10.40;5.95;;;27.80;64.00;;;;;;4971957;28;20045;-58
2021/07/12 01:51:01;;;;;;;11.32;6.10;;;27.80;63.70;;;;;;5028283;28;20041;-57
2021/07/12 01:53:41;;;;;;;11.25;6.15;;;27.90;63.60;;;;;;5030630;28;20365;-58
2021/07/12 01:56:16;;;;;;;14.23;9.45;;;27.90;63.40;;;;;;5030560;28;20476;-57
2021/07/12 01:58:54;;;;;;;6.70;5.95;;;27.90;63.80;;;;;;5013004;28;20049;-58
2021/07/12 02:01:24;;;;;;;5.75;4.57;;;27.90;63.60;;;;;;5030358;28;20120;-58
2021/07/12 02:03:55;;;;;;;11.63;8.68;;;28.00;63.50;;;;;;5015701;28;20037;-58
2021/07/12 02:06:23;;;;;;;14.32;8.32;;;28.00;63.60;;;;;;5023227;28;20026;-57
2021/07/12 02:08:51;;;;;;;10.32;8.48;;;28.00;63.70;;;;;;5001006;28;20025;-58
2021/07/12 02:11:26;;;;;;;11.18;8.00;;;28.00;63.80;;;;;;5017553;28;20029;-57
2021/07/12 02:13:53;;;;;;;12.50;7.63;;;28.00;63.90;;;;;;5049864;28;20029;-57
2021/07/12 02:16:24;;;;;;;11.93;8.07;;;28.00;63.70;;;;;;5016745;28;20135;-58
2021/07/12 02:18:55;;;;;;;6.55;5.20;;;28.00;63.80;;;;;;5032670;28;20035;-57
2021/07/12 02:21:35;;;;;;;5.63;5.00;;;28.00;63.50;;;;;;5032052;28;20036;-58
2021/07/12 02:24:25;;;;;;;7.65;5.97;;;28.10;63.60;;;;;;5031722;28;20117;-57
2021/07/12 02:26:53;;;;;;;7.00;5.03;;;28.10;63.80;;;;;;5032405;28;20029;-58
2021/07/12 02:29:20;;;;;;;6.85;4.40;;;28.10;63.50;;;;;;5015903;28;20060;-59
2021/07/12 02:31:51;;;;;;;8.00;6.13;;;28.10;63.30;;;;;;5032325;28;20502;-58
2021/07/12 02:34:19;;;;;;;7.63;4.72;;;28.20;63.30;;;;;;5032323;28;20441;-57
2021/07/12 02:36:48;;;;;;;5.50;4.97;;;28.20;63.10;;;;;;5050529;28;20424;-57
2021/07/12 02:39:30;;;;;;;12.07;8.80;;;28.30;63.10;;;;;;5035974;28;20024;-57
2021/07/12 02:42:02;;;;;;;7.55;5.57;;;28.30;63.40;;;;;;5036717;28;20045;-57
2021/07/12 02:44:34;;;;;;;12.23;8.23;;;28.30;63.00;;;;;;5016767;28;20039;-57
2021/07/12 02:47:03;;;;;;;8.90;7.97;;;28.30;63.20;;;;;;5035631;28;20029;-57
2021/07/12 02:49:34;;;;;;;9.13;6.22;;;28.30;63.20;;;;;;5019814;28;20498;-57
2021/07/12 02:52:05;;;;;;;8.10;5.93;;;28.40;63.20;;;;;;5035212;28;20029;-57
2021/07/12 02:54:40;;;;;;;7.88;6.07;;;28.30;62.90;;;;;;5027674;28;20056;-57
2021/07/12 02:57:09;;;;;;;8.40;5.30;;;28.30;62.90;;;;;;5053593;28;20033;-57
2021/07/12 02:59:37;;;;;;;9.82;7.82;;;28.30;62.80;;;;;;5035268;28;20025;-57
2021/07/12 03:02:04;;;;;;;6.57;5.13;;;28.30;63.10;;;;;;5018561;28;20037;-58
2021/07/12 03:04:30;;;;;;;5.47;4.60;;;28.40;62.90;;;;;;5018744;28;20027;-58
2021/07/12 03:07:01;;;;;;;9.25;6.18;;;28.40;62.80;;;;;;5052945;28;20029;-57
2021/07/12 03:09:42;;;;;;;7.93;4.53;;;28.40;63.00;;;;;;5035450;28;20086;-58
2021/07/12 03:12:20;;;;;;;7.03;5.10;;;28.40;62.90;;;;;;5034774;28;20442;-58
2021/07/12 03:14:58;;;;;;;10.98;5.50;;;28.40;62.70;;;;;;5053403;28;20056;-58
2021/07/12 03:17:28;;;;;;;9.68;7.18;;;28.40;62.60;;;;;;5034035;28;20052;-58
2021/07/12 03:19:58;;;;;;;9.82;7.55;;;28.40;62.90;;;;;;5035012;28;20017;-58
2021/07/12 03:22:27;;;;;;;13.35;6.80;;;28.50;62.90;;;;;;5035298;28;20068;-58
2021/07/12 03:24:56;;;;;;;13.20;7.97;;;28.40;62.70;;;;;;5035169;28;20053;-59
2021/07/12 03:27:23;;;;;;;9.82;5.47;;;28.40;62.60;;;;;;5034169;28;20033;-59
2021/07/12 03:29:53;;;;;;;9.02;6.75;;;28.50;62.70;;;;;;5039008;28;20428;-58
2021/07/12 03:32:30;;;;;;;9.85;6.47;;;28.50;62.70;;;;;;5053096;28;20112;-58
2021/07/12 03:35:01;;;;;;;7.95;5.22;;;28.50;62.70;;;;;;5051117;28;20479;-59
2021/07/12 03:37:27;;;;;;;7.63;5.65;;;28.50;62.50;;;;;;5048531;28;20055;-59
2021/07/12 03:39:54;;;;;;;8.82;6.57;;;28.50;62.40;;;;;;5050918;28;20032;-58
2021/07/12 03:42:21;;;;;;;6.07;5.22;;;28.50;62.40;;;;;;5051543;28;20033;-59
2021/07/12 03:44:52;;;;;;;6.75;5.45;;;28.50;62.30;;;;;;5051185;28;20040;-58
2021/07/12 03:47:30;;;;;;;6.40;4.93;;;28.50;62.20;;;;;;5051145;28;20036;-58
2021/07/12 03:50:11;;;;;;;13.77;6.47;;;28.50;62.10;;;;;;5050363;28;20044;-59
2021/07/12 03:52:46;;;;;;;13.95;7.20;;;28.60;62.20;;;;;;5052540;28;20029;-58
2021/07/12 03:55:14;;;;;;;10.27;5.95;;;28.50;62.10;;;;;;5052229;28;20025;-58
2021/07/12 03:57:41;;;;;;;11.90;6.72;;;28.60;62.10;;;;;;5044878;28;20026;-58
2021/07/12 04:00:11;;;;;;;9.00;7.20;;;28.60;62.10;;;;;;5039842;28;20368;-58
2021/07/12 04:02:42;;;;;;;9.63;6.32;;;28.60;62.00;;;;;;5051750;28;20229;-58
2021/07/12 04:05:09;;;;;;;9.10;6.00;;;28.60;61.90;;;;;;5051169;28;20037;-58
2021/07/12 04:07:36;;;;;;;10.68;7.85;;;28.60;61.90;;;;;;5051916;28;20029;-59
2021/07/12 04:10:04;;;;;;;10.10;7.40;;;28.60;61.90;;;;;;5052313;28;20032;-58
2021/07/12 04:12:31;;;;;;;14.65;7.55;;;28.60;61.70;;;;;;5051192;28;20515;-58
2021/07/12 04:14:58;;;;;;;8.05;6.30;;;28.60;61.80;;;;;;5051587;28;20025;-58
2021/07/12 04:17:24;;;;;;;13.05;8.05;;;28.70;61.80;;;;;;5044690;28;20380;-58
2021/07/12 04:19:51;;;;;;;10.30;6.72;;;28.70;61.70;;;;;;5051874;28;20079;-59
2021/07/12 04:22:18;;;;;;;9.70;6.65;;;28.70;61.60;;;;;;5050805;28;20029;-59
2021/07/12 04:24:44;;;;;;;9.73;7.55;;;28.70;61.60;;;;;;5050274;28;20112;-58
2021/07/12 04:27:10;;;;;;;14.85;7.88;;;28.70;61.60;;;;;;5051184;28;20021;-59
2021/07/12 04:29:36;;;;;;;12.00;7.95;;;28.70;61.50;;;;;;5050227;28;20618;-57
2021/07/12 04:32:03;;;;;;;15.20;7.82;;;28.70;61.60;;;;;;5050341;28;20384;-58
2021/07/12 04:34:30;;;;;;;8.10;6.05;;;28.70;61.50;;;;;;5051821;28;20086;-57
2021/07/12 04:36:56;;;;;;;16.52;7.07;;;28.70;61.40;;;;;;5051229;28;20419;-57
2021/07/12 04:39:22;;;;;;;12.27;7.93;;;28.80;61.50;;;;;;5051786;28;20047;-57
2021/07/12 04:41:48;;;;;;;13.57;7.25;;;28.80;61.40;;;;;;5051723;28;20029;-57
2021/07/12 04:44:15;;;;;;;11.50;6.47;;;28.80;61.30;;;;;;5050090;28;20060;-57
2021/07/12 04:46:41;;;;;;;8.98;6.82;;;28.80;61.30;;;;;;5031512;28;20511;-57
2021/07/12 04:49:07;;;;;;;10.45;7.53;;;28.80;61.80;;;;;;5031675;28;20076;-57
2021/07/12 04:51:33;;;;;;;10.95;7.63;;;28.90;61.20;;;;;;5031916;28;20100;-57
2021/07/12 04:53:59;;;;;;;9.45;6.80;;;28.90;61.10;;;;;;5049173;28;20029;-58
2021/07/12 04:56:25;;;;;;;10.48;7.05;;;28.90;61.00;;;;;;5046281;28;20032;-57
2021/07/12 04:58:52;;;;;;;10.57;7.68;;;28.90;60.90;;;;;;5042653;28;20033;-57
2021/07/12 05:01:18;;;;;;;12.63;7.82;;;29.00;61.00;;;;;;5050094;28;20029;-57
2021/07/12 05:03:44;;;;;;;12.38;7.75;;;29.00;60.90;;;;;;5051177;28;20045;-57
2021/07/12 05:06:11;;;;;;;17.77;8.90;;;29.00;60.80;;;;;;5051511;28;20037;-57
2021/07/12 05:08:37;;;;;;;10.25;7.18;;;29.00;60.80;;;;;;5051254;28;20021;-57
2021/07/12 05:11:04;;;;;;;12.10;7.85;;;29.10;60.90;;;;;;5050104;28;20025;-58
2021/07/12 05:13:31;;;;;;;12.88;7.20;;;29.10;60.80;;;;;;5050509;28;20511;-58
2021/07/12 05:15:57;;;;;;;11.55;8.43;;;29.00;60.70;;;;;;5049936;28;20025;-59
2021/07/12 05:18:24;;;;;;;11.65;7.88;;;29.10;60.70;;;;;;5051060;28;20041;-58
2021/07/12 05:20:52;;;;;;;12.57;8.48;;;29.00;60.70;;;;;;5050691;28;20025;-59
2021/07/12 05:23:19;;;;;;;12.15;8.48;;;29.10;60.70;;;;;;5050765;28;20423;-59
2021/07/12 05:25:46;;;;;;;12.35;8.27;;;29.00;60.60;;;;;;5049946;28;20873;-59
2021/07/12 05:28:12;;;;;;;11.98;7.25;;;29.10;60.70;;;;;;5049020;28;20562;-58
2021/07/12 05:30:37;;;;;;;10.10;7.55;;;29.10;60.70;;;;;;5050696;28;20133;-56
2021/07/12 05:33:05;;;;;;;18.83;9.20;;;29.10;60.70;;;;;;5051160;28;20028;-57
2021/07/12 05:35:31;;;;;;;15.65;9.07;;;29.10;60.70;;;;;;5032531;28;20487;-57
2021/07/12 05:37:57;;;;;;;8.73;7.80;;;29.10;60.70;;;;;;5051081;28;20025;-58
2021/07/12 05:40:24;;;;;;;12.00;8.30;;;29.10;60.70;;;;;;5044874;28;20022;-57
2021/07/12 05:42:50;;;;;;;12.80;8.32;;;29.10;60.70;;;;;;5031004;28;20405;-56
2021/07/12 05:45:16;;;;;;;17.00;9.63;;;29.10;60.70;;;;;;5040196;28;20063;-57
2021/07/12 05:47:42;;;;;;;18.60;9.85;;;29.10;61.40;;;;;;5032373;28;20061;-57
2021/07/12 05:50:10;;;;;;;11.88;9.25;;;29.10;60.80;;;;;;5050354;28;20033;-58
2021/07/12 05:52:37;;;;;;;14.05;9.45;;;29.10;60.70;;;;;;5033214;28;20032;-57
2021/07/12 05:55:05;;;;;;;23.08;10.93;;;29.10;60.70;;;;;;5031987;28;20036;-57
2021/07/12 05:57:31;;;;;;;19.15;9.50;;;29.10;60.70;;;;;;5032508;28;20104;-58
2021/07/12 05:59:57;;;;;;;20.67;8.85;;;29.10;60.70;;;;;;5050714;28;20025;-58
2021/07/12 06:02:23;;;;;;;15.05;9.18;;;29.10;60.60;;;;;;5032369;28;20041;-57
2021/07/12 06:04:49;;;;;;;11.75;8.70;;;29.10;60.60;;;;;;5048281;28;20082;-59
2021/07/12 06:07:15;;;;;;;18.77;8.75;;;29.10;60.50;;;;;;5029237;28;20045;-58
2021/07/12 06:09:41;;;;;;;16.23;10.13;;;29.20;60.50;;;;;;5049407;28;20064;-58
2021/07/12 06:12:07;;;;;;;18.02;9.05;;;29.20;60.40;;;;;;5051435;28;20036;-58
2021/07/12 06:14:33;;;;;;;19.75;10.02;;;29.20;60.40;;;;;;5053888;28;20021;-58
2021/07/12 06:16:59;;;;;;;20.90;9.70;;;29.30;60.40;;;;;;5049374;28;20337;-58
2021/07/12 06:19:25;;;;;;;19.88;9.52;;;29.30;60.20;;;;;;5034383;28;20029;-58
2021/07/12 06:21:51;;;;;;;18.33;9.38;;;29.30;60.20;;;;;;5050444;28;20029;-57
2021/07/12 06:24:17;;;;;;;19.48;8.35;;;29.30;60.00;;;;;;5053223;28;20032;-56
2021/07/12 06:26:43;;;;;;;24.02;10.65;;;29.30;59.90;;;;;;5052734;28;20040;-57
2021/07/12 06:29:09;;;;;;;19.17;9.88;;;29.30;59.80;;;;;;5016561;28;20179;-60
2021/07/12 06:31:36;;;;;;;23.02;9.57;;;29.30;59.70;;;;;;5049035;28;20029;-59
2021/07/12 06:34:02;;;;;;;26.42;10.88;;;29.40;59.70;;;;;;5035473;28;20029;-59
2021/07/12 06:36:28;;;;;;;22.85;8.98;;;29.40;59.50;;;;;;5053072;28;20033;-59
2021/07/12 06:38:55;;;;;;;19.67;9.40;;;29.40;59.40;;;;;;5051074;28;20021;-59
2021/07/12 06:41:21;;;;;;;27.58;10.13;;;29.40;59.30;;;;;;5035556;28;20033;-59
2021/07/12 06:43:47;;;;;;;20.00;9.18;;;29.50;59.00;;;;;;5053463;28;20079;-59
2021/07/12 06:46:15;;;;;;;23.17;9.65;;;29.50;58.80;;;;;;5052934;28;20124;-59
2021/07/12 06:48:43;;;;;;;;;;;29.50;58.50;;;;;;5017446;28;20033;-59
2021/07/12 06:51:17;;;;;;;19.95;8.88;;;29.50;59.20;;;;;;5042583;28;19999;-60
2021/07/12 06:53:44;;;;;;;27.98;10.65;;;29.60;58.30;;;;;;5053443;28;20029;-59
2021/07/12 06:56:13;;;;;;;40.67;10.73;;;29.70;58.10;;;;;;5052226;28;20499;-59
2021/07/12 06:58:39;;;;;;;29.17;9.88;;;29.70;56.00;;;;;;5052538;28;20056;-59
2021/07/12 07:01:05;;;;;;;32.60;11.68;;;29.70;56.90;;;;;;5035558;28;20029;-58
2021/07/12 07:03:33;;;;;;;23.90;10.25;;;29.70;56.40;;;;;;5034329;28;20104;-58
2021/07/12 07:05:59;;;;;;;37.45;10.23;;;29.70;56.80;;;;;;5052938;28;20033;-60
2021/07/12 07:08:35;;;;;;;26.85;10.07;;;29.80;56.70;;;;;;5034064;28;20029;-59
2021/07/12 07:11:01;;;;;;;32.70;9.52;;;29.80;56.60;;;;;;5046477;28;20055;-59
2021/07/12 07:13:27;;;;;;;32.05;9.45;;;29.90;56.40;;;;;;5037172;28;20559;-59
2021/07/12 07:15:56;;;;;;;33.22;10.27;;;29.90;56.20;;;;;;5049811;28;20087;-59
2021/07/12 07:18:22;;;;;;;29.08;9.18;;;29.90;56.00;;;;;;5034316;28;20028;-59
2021/07/12 07:20:48;;;;;;;33.85;10.85;;;29.90;55.70;;;;;;5052851;28;20049;-59
2021/07/12 07:23:14;;;;;;;33.53;9.88;;;30.00;55.40;;;;;;5033929;28;20086;-59
2021/07/12 07:25:41;;;;;;;26.10;10.00;;;30.00;55.10;;;;;;5051245;28;20029;-59
2021/07/12 07:28:07;;;;;;;34.75;10.32;;;30.00;55.10;;;;;;5050506;28;20017;-59
2021/07/12 07:30:35;;;;;;;32.88;9.13;;;30.10;54.80;;;;;;5052283;28;20052;-60
2021/07/12 07:33:01;;;;;;;38.13;10.23;;;30.10;54.70;;;;;;5052121;28;20078;-60
2021/07/12 07:35:27;;;;;;;32.92;9.68;;;30.10;54.50;;;;;;5051896;28;20060;-60
2021/07/12 07:37:53;;;;;;;33.53;11.20;;;30.20;54.30;;;;;;5051328;28;20079;-60
2021/07/12 07:40:20;;;;;;;34.20;11.65;;;30.20;54.10;;;;;;5034913;28;20028;-60
2021/07/12 07:42:47;;;;;;;31.02;14.02;;;30.20;54.00;;;;;;5052084;28;20041;-60
2021/07/12 07:45:14;;;;;;;36.72;13.63;;;30.20;53.80;;;;;;5049225;28;20028;-60
2021/07/12 07:47:41;;;;;;;50.35;11.80;;;30.30;53.60;;;;;;5046359;28;20104;-60
2021/07/12 07:50:08;;;;;;;39.25;11.35;;;30.40;53.00;;;;;;5008613;28;20427;-60
2021/07/12 07:52:35;;;;;;;36.47;12.57;;;30.30;53.20;;;;;;5033380;28;20443;-60
2021/07/12 07:55:01;;;;;;;36.60;11.23;;;30.40;53.30;;;;;;5051042;28;20029;-59
2021/07/12 07:57:28;;;;;;;43.67;12.93;;;30.40;53.10;;;;;;5051290;28;20044;-60
2021/07/12 07:59:54;;;;;;;44.13;12.70;;;30.40;52.90;;;;;;5051774;28;20036;-61
2021/07/12 08:02:20;;;;;;;37.78;12.07;;;30.50;52.80;;;;;;5051326;28;20041;-61
2021/07/12 08:04:45;;;;;;;32.65;10.48;;;30.50;52.50;;;;;;5049977;28;20032;-61
2021/07/12 08:07:11;;;;;;;50.67;11.73;;;30.60;52.60;;;;;;5047047;28;20036;-60
2021/07/12 08:09:37;;;;;;;30.23;9.77;;;30.60;50.70;;;;;;5051084;28;20396;-59
2021/07/12 08:12:04;;;;;;;26.80;8.25;;;30.70;51.40;;;;;;5050836;28;20025;-60
2021/07/12 08:14:30;;;;;;;31.23;8.25;;;30.70;50.80;;;;;;5047783;28;20028;-61
2021/07/12 08:16:56;;;;;;;29.75;7.88;;;30.80;50.50;;;;;;5039706;28;20469;-62
2021/07/12 08:19:22;;;;;;;29.95;10.05;;;30.80;49.30;;;;;;5042093;28;20028;-61
2021/07/12 08:21:49;;;;;;;25.83;8.88;;;30.90;49.90;;;;;;5039695;28;20198;-61
2021/07/12 08:24:15;;;;;;;23.00;11.75;;;30.90;48.10;;;;;;5035915;28;20025;-61
2021/07/12 08:26:41;;;;;;;27.40;11.20;;;31.00;49.20;;;;;;5031289;28;20056;-61
2021/07/12 08:29:08;;;;;;;37.63;9.82;;;31.00;49.30;;;;;;5031505;28;20053;-61
2021/07/12 08:31:34;;;;;;;23.38;8.95;;;31.10;48.10;;;;;;5031859;28;20595;-62
2021/07/12 08:34:00;;;;;;;27.40;7.93;;;31.10;48.80;;;;;;5031363;28;20040;-61
2021/07/12 08:36:26;;;;;;;18.83;6.82;;;31.10;48.40;;;;;;5031770;28;20030;-61
2021/07/12 08:38:52;;;;;;;16.27;7.30;;;31.20;48.40;;;;;;5031586;28;20040;-63
2021/07/12 08:41:21;;;;;;;26.08;6.60;;;31.20;48.20;;;;;;5031237;28;20025;-61
2021/07/12 08:43:47;;;;;;;18.00;8.57;;;31.30;48.00;;;;;;5013519;28;20081;-60
2021/07/12 08:46:13;;;;;;;29.80;13.93;;;31.30;47.70;;;;;;5031726;28;20036;-61
2021/07/12 08:48:39;;;;;;;33.47;12.73;;;31.40;47.60;;;;;;5031108;28;20033;-60
2021/07/12 08:51:05;;;;;;;24.20;15.10;;;31.40;46.40;;;;;;5013917;28;20029;-61
2021/07/12 08:53:32;;;;;;;22.52;14.13;;;31.50;46.80;;;;;;5031334;28;20041;-62
2021/07/12 08:55:57;;;;;;;41.08;29.27;;;31.50;47.20;;;;;;5031240;28;20017;-61
2021/07/12 08:58:27;;;;;;;31.45;22.67;;;31.60;47.20;;;;;;5030945;28;20365;-61
2021/07/12 09:01:00;;;;;;;34.20;28.70;;;31.60;47.40;;;;;;5030907;28;20029;-60
2021/07/12 09:03:29;;;;;;;33.75;28.92;;;31.60;47.20;;;;;;5031205;28;20042;-60
2021/07/12 09:05:56;;;;;;;;;;;31.60;47.40;;;;;;5031374;28;20485;-61
2021/07/12 09:08:47;;;;;;;32.72;25.02;;;31.70;48.70;;;;;;5013562;28;19963;-61
2021/07/12 09:11:20;;;;;;;31.65;22.30;;;31.70;47.40;;;;;;5030765;28;20408;-66
2021/07/12 09:14:03;;;;;;;35.65;25.88;;;31.80;47.30;;;;;;5013382;28;20056;-65
2021/07/12 09:16:32;;;;;;;34.00;26.50;;;31.80;47.70;;;;;;5030796;28;20055;-62
2021/07/12 09:19:03;;;;;;;35.40;28.13;;;31.80;48.80;;;;;;4996494;28;20356;-60
2021/07/12 09:21:37;;;;;;;35.75;30.52;;;31.80;49.10;;;;;;5030994;28;20163;-61
2021/07/12 09:24:26;;;;;;;35.58;30.70;;;31.70;49.90;;;;;;5012840;28;20127;-61
2021/07/12 09:26:55;;;;;;;40.67;32.00;;;31.70;49.90;;;;;;4996859;28;20076;-61
2021/07/12 09:29:24;;;;;;;38.10;27.67;;;31.70;49.50;;;;;;5012887;28;20041;-61
2021/07/12 09:31:52;;;;;;;34.43;30.23;;;31.70;49.30;;;;;;5013160;28;20030;-61
2021/07/12 09:34:18;;;;;;;35.53;29.20;;;31.70;49.20;;;;;;5030840;28;20298;-61
2021/07/12 09:36:45;;;;;;;30.80;27.65;;;31.70;48.80;;;;;;4996226;28;20037;-62
2021/07/12 09:39:32;;;;;;;32.58;28.42;;;31.60;48.50;;;;;;5030396;28;20539;-61
2021/07/12 09:42:08;;;;;;;31.60;28.60;;;31.60;48.80;;;;;;5024137;28;20067;-62
2021/07/12 09:44:36;;;;;;;30.35;27.23;;;31.60;48.00;;;;;;5030764;28;20030;-61
2021/07/12 09:47:07;;;;;;;33.22;29.42;;;31.60;48.10;;;;;;5032812;28;20431;-62
2021/07/12 09:49:34;;;;;;;30.92;27.60;;;31.60;48.10;;;;;;5016629;28;20087;-62
2021/07/12 09:52:02;;;;;;;32.70;27.38;;;31.60;48.80;;;;;;5045073;28;20036;-61
2021/07/12 09:54:37;;;;;;;27.88;24.98;;;31.60;49.30;;;;;;5050707;28;20376;-63
2021/07/12 09:57:15;;;;;;;30.00;26.73;;;31.50;49.70;;;;;;5034830;28;20476;-62
2021/07/12 09:59:58;;;;;;;31.35;27.50;;;31.50;50.00;;;;;;5053996;28;20045;-67
2021/07/12 10:02:26;;;;;;;32.80;26.45;;;31.50;49.90;;;;;;5043227;28;20041;-62
2021/07/12 10:05:05;;;;;;;28.63;25.63;;;31.60;49.90;;;;;;5053921;28;20052;-62
2021/07/12 10:07:32;;;;;;;29.33;25.63;;;31.50;50.30;;;;;;5054075;28;20434;-63
2021/07/12 10:10:00;;;;;;;29.67;25.10;;;31.60;50.30;;;;;;5035871;28;20303;-61
2021/07/12 10:12:27;;;;;;;27.65;24.27;;;31.60;50.10;;;;;;5034358;28;20032;-63
2021/07/12 10:14:55;;;;;;;34.90;25.65;;;31.60;50.10;;;;;;5036044;28;20113;-63
2021/07/12 10:17:21;;;;;;;30.30;26.10;;;31.60;50.50;;;;;;5036010;28;20025;-63
2021/07/12 10:19:48;;;;;;;46.28;26.42;;;31.60;50.60;;;;;;5035735;28;20067;-63
2021/07/12 10:22:16;;;;;;;49.30;25.77;;;31.60;50.50;;;;;;5053451;28;20021;-63
2021/07/12 10:24:47;;;;;;;34.78;25.40;;;31.60;50.40;;;;;;5053746;28;20472;-63
2021/07/12 10:27:24;;;;;;;28.88;24.90;;;31.60;50.90;;;;;;5053491;28;20021;-63
2021/07/12 10:29:52;;;;;;;38.75;23.13;;;31.60;50.80;;;;;;5053733;28;20106;-62
2021/07/12 10:32:20;;;;;;;31.58;22.77;;;31.60;50.50;;;;;;5052851;28;20024;-63
2021/07/12 10:34:51;;;;;;;33.00;23.88;;;31.60;50.50;;;;;;5018756;28;20032;-62
2021/07/12 10:37:25;;;;;;;35.22;24.08;;;31.60;50.90;;;;;;5053497;28;20039;-64
2021/07/12 10:39:59;;;;;;;32.80;23.45;;;31.60;50.90;;;;;;5053241;28;20081;-62
2021/07/12 10:42:44;;;;;;;35.45;24.08;;;31.60;50.50;;;;;;5053226;28;20400;-70
2021/07/12 10:45:21;;;;;;;33.70;24.52;;;31.60;50.60;;;;;;5053073;28;20066;-70
2021/07/12 10:48:04;;;;;;;35.92;23.75;;;31.60;50.50;;;;;;5053524;28;20029;-70
2021/07/12 10:50:45;;;;;;;27.52;21.60;;;31.70;50.70;;;;;;5034501;28;20047;-70
2021/07/12 10:53:14;;;;;;;27.52;21.70;;;31.60;50.60;;;;;;5036122;28;20033;-68
2021/07/12 10:56:08;;;;;;;24.83;21.27;;;31.70;50.60;;;;;;5053409;28;20337;-70
2021/07/12 10:58:35;;;;;;;27.50;21.13;;;31.70;50.70;;;;;;5029747;28;20033;-71
2021/07/12 11:01:04;;;;;;;26.58;20.90;;;31.80;50.70;;;;;;5052040;28;20074;-71
2021/07/12 11:03:49;;;;;;;27.03;20.57;;;31.80;50.60;;;;;;5052165;28;20051;-71
2021/07/12 11:06:21;;;;;;;27.48;20.13;;;31.90;50.60;;;;;;5052956;28;20110;-68
2021/07/12 11:09:00;;;;;;;24.75;21.00;;;31.90;50.50;;;;;;5034490;28;20048;-69
2021/07/12 11:11:26;;;;;;;26.23;20.95;;;31.90;50.40;;;;;;5021888;28;20685;-70
2021/07/12 11:14:07;;;;;;;23.65;20.60;;;32.00;50.50;;;;;;5014751;28;20108;-68
2021/07/12 11:16:45;;;;;;;22.90;20.50;;;32.10;50.50;;;;;;5035960;28;20040;-70
2021/07/12 11:19:31;;;;;;;28.17;20.55;;;32.10;50.40;;;;;;5051278;28;20036;-70
2021/07/12 11:22:15;;;;;;;22.40;18.63;;;32.10;50.40;;;;;;5033276;28;20380;-71
2021/07/12 11:25:08;;;;;;;23.02;20.58;;;32.20;50.40;;;;;;5052619;28;20045;-71
2021/07/12 11:27:39;;;;;;;24.13;18.67;;;32.20;50.30;;;;;;5033873;28;20055;-70
2021/07/12 11:30:44;;;;;;;20.25;18.13;;;32.30;50.30;;;;;;5031294;28;20067;-70
2021/07/12 11:33:29;;;;;;;19.77;17.17;;;32.30;50.40;;;;;;4992254;28;20029;-70
2021/07/12 11:35:56;;;;;;;20.88;18.13;;;32.40;50.20;;;;;;5008171;28;20084;-70
2021/07/12 11:38:23;;;;;;;20.45;17.30;;;32.50;50.20;;;;;;4992996;28;20037;-70
2021/07/12 11:40:52;;;;;;;21.38;16.85;;;32.50;50.10;;;;;;4992691;28;20033;-70
2021/07/12 11:43:30;;;;;;;20.10;17.30;;;32.50;50.10;;;;;;4993272;28;20045;-70
2021/07/12 11:46:00;;;;;;;18.50;16.52;;;32.50;49.90;;;;;;5009728;28;20415;-70
2021/07/12 11:48:26;;;;;;;18.17;16.38;;;32.60;49.90;;;;;;5005197;28;20022;-69
2021/07/12 11:50:52;;;;;;;20.48;17.35;;;32.60;49.90;;;;;;5009073;28;20034;-67
2021/07/12 11:53:18;;;;;;;22.98;17.77;;;32.70;49.90;;;;;;5009594;28;20022;-71
2021/07/12 11:55:44;;;;;;;18.08;16.17;;;32.70;49.80;;;;;;4993008;28;20026;-71
2021/07/12 11:58:10;;;;;;;20.15;16.38;;;32.80;49.80;;;;;;4992848;28;20022;-70
2021/07/12 12:00:41;;;;;;;20.38;16.23;;;32.80;49.70;;;;;;4992856;28;20046;-70
2021/07/12 12:03:12;;;;;;;16.98;15.13;;;32.80;49.50;;;;;;5011711;28;20499;-69
2021/07/12 12:05:41;;;;;;;17.45;15.65;;;32.80;49.40;;;;;;5040671;28;20026;-70
2021/07/12 12:08:08;;;;;;;17.73;15.73;;;32.90;49.50;;;;;;5065444;28;20130;-70
2021/07/12 12:10:38;;;;;;;18.42;15.07;;;32.90;49.50;;;;;;5039670;28;20040;-69
2021/07/12 12:13:15;;;;;;;17.52;15.57;;;32.90;49.40;;;;;;5042663;28;20045;-70
2021/07/12 12:15:44;;;;;;;18.13;16.30;;;33.00;49.30;;;;;;5025968;28;20061;-70
2021/07/12 12:18:16;;;;;;;16.05;14.55;;;33.00;49.30;;;;;;5042471;28;20032;-70
2021/07/12 12:20:47;;;;;;;16.83;15.13;;;33.10;49.20;;;;;;5043379;28;20041;-69
2021/07/12 12:23:19;;;;;;;16.45;14.77;;;33.10;49.10;;;;;;5043250;28;20056;-70
2021/07/12 12:25:52;;;;;;;16.85;15.15;;;33.10;49.10;;;;;;5042651;28;20083;-70
2021/07/12 12:28:23;;;;;;;17.30;14.27;;;33.20;49.10;;;;;;5042323;28;20036;-69
2021/07/12 12:30:49;;;;;;;15.40;13.80;;;33.20;49.00;;;;;;5041026;28;20037;-68
2021/07/12 12:33:15;;;;;;;17.48;13.98;;;33.20;49.00;;;;;;5025030;28;20037;-70
2021/07/12 12:35:43;;;;;;;15.07;13.63;;;33.20;49.00;;;;;;5045732;28;20027;-71
2021/07/12 12:38:17;;;;;;;14.75;13.27;;;33.30;49.00;;;;;;5046360;28;20029;-70
2021/07/12 12:40:44;;;;;;;14.82;13.32;;;33.30;48.80;;;;;;5029706;28;20057;-69
2021/07/12 12:43:14;;;;;;;14.75;12.88;;;33.30;48.70;;;;;;5051493;28;20145;-68
2021/07/12 12:45:53;;;;;;;16.42;13.77;;;33.40;48.70;;;;;;5033388;28;20021;-69
2021/07/12 12:48:32;;;;;;;14.35;12.90;;;33.40;48.60;;;;;;5017162;28;20041;-67
2021/07/12 12:50:58;;;;;;;13.65;12.25;;;33.40;48.60;;;;;;5051291;28;20039;-69
2021/07/12 12:53:31;;;;;;;15.25;13.45;;;33.50;48.60;;;;;;5051295;28;20025;-69
2021/07/12 12:55:57;;;;;;;14.68;13.32;;;33.50;48.40;;;;;;5033274;28;20387;-70
2021/07/12 12:58:27;;;;;;;14.52;13.07;;;33.50;48.50;;;;;;5047673;28;20025;-71
2021/07/12 13:00:54;;;;;;;14.82;13.32;;;33.60;48.30;;;;;;5042050;28;20017;-69
2021/07/12 13:03:20;;;;;;;14.05;12.70;;;33.60;49.00;;;;;;5023827;28;20116;-70
2021/07/12 13:06:03;;;;;;;16.98;12.70;;;33.60;48.30;;;;;;5039879;28;20024;-70
2021/07/12 13:08:30;;;;;;;14.40;12.15;;;33.70;48.20;;;;;;5030997;28;20103;-70
2021/07/12 13:11:02;;;;;;;13.88;12.38;;;33.70;48.10;;;;;;5013204;28;20037;-69
2021/07/12 13:13:31;;;;;;;13.00;11.82;;;33.70;47.90;;;;;;4997121;28;20033;-70
2021/07/12 13:16:15;;;;;;;13.63;12.20;;;33.70;47.90;;;;;;5013331;28;20022;-70
2021/07/12 13:18:48;;;;;;;12.63;11.52;;;33.70;47.90;;;;;;5030336;28;20040;-69